createdAt,value
2023-05-07T00:00:20.119Z,101267.25
2023-05-07T00:02:47.690Z,101274.06
2023-05-07T00:05:15.700Z,101274.06
2023-05-07T00:07:42.454Z,101275.63
2023-05-07T00:10:09.745Z,101274.81
2023-05-07T00:12:36.564Z,101275.63
2023-05-07T00:15:04.394Z,101276.88
2023-05-07T00:17:31.784Z,101288.84
2023-05-07T00:19:58.309Z,101288.44
2023-05-07T00:22:24.779Z,101282.03
2023-05-07T00:24:51.251Z,101276.88
2023-05-07T00:27:17.702Z,101276.44
2023-05-07T00:29:44.182Z,101281.69
2023-05-07T00:32:10.711Z,101275.72
2023-05-07T00:34:37.221Z,101276.50
2023-05-07T00:37:05.967Z,101276.50
2023-05-07T00:39:33.122Z,101275.72
2023-05-07T00:41:59.709Z,101273.34
2023-05-07T00:44:26.188Z,101265.38
2023-05-07T00:46:53.026Z,101270.56
2023-05-07T00:49:20.062Z,101263.00
2023-05-07T00:51:47.244Z,101259.91
2023-05-07T00:54:14.452Z,101262.72
2023-05-07T00:56:41.090Z,101262.34
2023-05-07T00:59:07.659Z,101244.84
2023-05-07T01:01:34.394Z,101257.63
2023-05-07T01:04:01.036Z,101242.91
2023-05-07T01:06:29.974Z,101253.72
2023-05-07T01:08:58.447Z,101254.19
2023-05-07T01:11:26.559Z,101265.34
2023-05-07T01:13:54.057Z,101265.75
2023-05-07T01:16:21.103Z,101262.97
2023-05-07T01:18:49.986Z,101262.19
2023-05-07T01:21:18.515Z,101258.69
2023-05-07T01:23:47.006Z,101262.63
2023-05-07T01:26:13.676Z,101257.81
2023-05-07T01:28:40.440Z,101256.22
2023-05-07T01:31:09.060Z,101253.88
2023-05-07T01:33:37.845Z,101258.59
2023-05-07T01:36:07.548Z,101265.41
2023-05-07T01:38:34.856Z,101264.63
2023-05-07T01:41:01.335Z,101270.19
2023-05-07T01:43:27.895Z,101257.47
2023-05-07T01:46:01.114Z,101254.25
2023-05-07T01:48:27.676Z,101255.47
2023-05-07T01:50:54.651Z,101250.72
2023-05-07T01:53:21.094Z,101259.03
2023-05-07T01:55:47.626Z,101257.03
2023-05-07T01:58:14.079Z,101254.66
2023-05-07T02:00:41.794Z,101248.69
2023-05-07T02:03:08.373Z,101252.28
2023-05-07T02:05:34.934Z,101253.94
2023-05-07T02:08:01.461Z,101241.66
2023-05-07T02:10:27.962Z,101250.34
2023-05-07T02:12:54.466Z,101251.56
2023-05-07T02:15:20.979Z,101254.34
2023-05-07T02:18:01.720Z,101255.13
2023-05-07T02:20:28.470Z,101249.19
2023-05-07T02:22:54.988Z,101256.34
2023-05-07T02:25:21.539Z,101249.19
2023-05-07T02:27:48.154Z,101245.97
2023-05-07T02:30:15.626Z,101249.63
2023-05-07T02:32:42.151Z,101242.03
2023-05-07T02:35:09.249Z,101247.25
2023-05-07T02:37:36.050Z,101244.88
2023-05-07T02:40:05.082Z,101249.66
2023-05-07T02:42:31.808Z,101255.66
2023-05-07T02:44:58.250Z,101252.09
2023-05-07T02:47:24.847Z,101251.28
2023-05-07T02:49:51.289Z,101257.66
2023-05-07T02:52:17.723Z,101249.28
2023-05-07T02:54:44.254Z,101249.28
2023-05-07T02:57:10.719Z,101250.50
2023-05-07T02:59:37.528Z,101247.69
2023-05-07T03:02:04.154Z,101246.53
2023-05-07T03:04:30.716Z,101248.56
2023-05-07T03:06:57.366Z,101248.97
2023-05-07T03:09:23.848Z,101247.78
2023-05-07T03:11:50.413Z,101259.81
2023-05-07T03:14:16.869Z,101263.03
2023-05-07T03:16:43.321Z,101255.84
2023-05-07T03:19:09.773Z,101266.59
2023-05-07T03:21:36.282Z,101266.97
2023-05-07T03:24:02.755Z,101262.97
2023-05-07T03:26:29.176Z,101253.78
2023-05-07T03:28:56.471Z,101257.47
2023-05-07T03:31:23.028Z,101259.44
2023-05-07T03:33:53.558Z,101248.31
2023-05-07T03:36:20.835Z,101260.69
2023-05-07T03:38:47.458Z,101255.13
2023-05-07T03:41:14.134Z,101257.91
2023-05-07T03:43:40.936Z,101257.09
2023-05-07T03:46:07.519Z,101261.13
2023-05-07T03:48:34.108Z,101254.75
2023-05-07T03:51:00.740Z,101261.53
2023-05-07T03:53:27.227Z,101254.38
2023-05-07T03:55:53.681Z,101259.53
2023-05-07T03:58:20.200Z,101252.41
2023-05-07T04:00:50.174Z,101265.53
2023-05-07T04:03:16.850Z,101263.97
2023-05-07T04:05:43.333Z,101258.81
2023-05-07T04:08:09.876Z,101270.72
2023-05-07T04:10:36.297Z,101272.78
2023-05-07T04:13:02.793Z,101270.00
2023-05-07T04:15:29.438Z,101270.41
2023-05-07T04:17:56.021Z,101272.03
2023-05-07T04:20:22.469Z,101268.44
2023-05-07T04:22:48.971Z,101268.44
2023-05-07T04:25:17.345Z,101260.88
2023-05-07T04:27:43.829Z,101269.66
2023-05-07T04:30:10.984Z,101273.19
2023-05-07T04:32:38.360Z,101272.78
2023-05-07T04:35:05.401Z,101269.56
2023-05-07T04:37:33.595Z,101264.84
2023-05-07T04:40:00.038Z,101268.38
2023-05-07T04:42:26.579Z,101268.38
2023-05-07T04:44:54.586Z,101278.34
2023-05-07T04:47:21.137Z,101272.34
2023-05-07T04:49:47.634Z,101282.66
2023-05-07T04:52:14.160Z,101286.22
2023-05-07T04:54:40.648Z,101279.81
2023-05-07T04:57:07.212Z,101283.81
2023-05-07T04:59:33.978Z,101290.13
2023-05-07T05:02:00.635Z,101290.06
2023-05-07T05:04:27.172Z,101286.50
2023-05-07T05:06:53.905Z,101284.06
2023-05-07T05:09:20.415Z,101286.03
2023-05-07T05:11:46.989Z,101288.06
2023-05-07T05:14:13.564Z,101294.41
2023-05-07T05:16:40.470Z,101291.59
2023-05-07T05:19:07.041Z,101296.00
2023-05-07T05:21:33.598Z,101289.19
2023-05-07T05:24:00.043Z,101291.56
2023-05-07T05:26:26.745Z,101301.09
2023-05-07T05:28:53.189Z,101299.88
2023-05-07T05:31:19.768Z,101313.41
2023-05-07T05:33:46.282Z,101306.66
2023-05-07T05:36:14.076Z,101309.03
2023-05-07T05:38:41.414Z,101305.75
2023-05-07T05:41:07.940Z,101304.94
2023-05-07T05:43:34.489Z,101302.53
2023-05-07T05:46:01.720Z,101306.06
2023-05-07T05:48:30.165Z,101303.97
2023-05-07T05:50:56.658Z,101296.31
2023-05-07T05:53:23.128Z,101305.00
2023-05-07T05:55:50.965Z,101303.34
2023-05-07T05:58:17.531Z,101293.31
2023-05-07T06:00:45.874Z,101304.38
2023-05-07T06:03:14.232Z,101300.34
2023-05-07T06:05:41.021Z,101308.63
2023-05-07T06:08:07.522Z,101313.66
2023-05-07T06:10:34.116Z,101312.31
2023-05-07T06:13:00.614Z,101311.47
2023-05-07T06:15:27.130Z,101311.00
2023-05-07T06:17:53.644Z,101318.75
2023-05-07T06:20:20.177Z,101315.38
2023-05-07T06:22:46.699Z,101319.19
2023-05-07T06:25:13.233Z,101320.28
2023-05-07T06:27:40.719Z,101323.78
2023-05-07T06:30:08.679Z,101324.50
2023-05-07T06:32:35.291Z,101323.59
2023-05-07T06:35:01.826Z,101333.84
2023-05-07T06:37:28.308Z,101336.97
2023-05-07T06:39:54.872Z,101337.69
2023-05-07T06:42:21.401Z,101337.56
2023-05-07T06:44:47.900Z,101337.47
2023-05-07T06:47:16.102Z,101342.16
2023-05-07T06:49:43.061Z,101340.84
2023-05-07T06:52:09.573Z,101335.63
2023-05-07T06:54:36.073Z,101334.69
2023-05-07T06:57:02.542Z,101326.66
2023-05-07T06:59:29.022Z,101330.97
2023-05-07T07:01:55.581Z,101328.16
2023-05-07T07:04:24.067Z,101333.19
2023-05-07T07:06:52.674Z,101331.78
2023-05-07T07:09:19.202Z,101336.81
2023-05-07T07:11:45.702Z,101336.72
2023-05-07T07:14:12.191Z,101332.19
2023-05-07T07:16:38.861Z,101338.84
2023-05-07T07:19:05.416Z,101336.63
2023-05-07T07:21:32.066Z,101328.22
2023-05-07T07:23:58.706Z,101333.38
2023-05-07T07:26:25.520Z,101327.69
2023-05-07T07:28:51.975Z,101326.13
2023-05-07T07:31:18.465Z,101334.97
2023-05-07T07:33:44.995Z,101325.41
2023-05-07T07:36:11.516Z,101338.03
2023-05-07T07:38:38.038Z,101327.59
2023-05-07T07:41:05.718Z,101325.97
2023-05-07T07:43:32.255Z,101331.84
2023-05-07T07:45:58.688Z,101328.06
2023-05-07T07:48:25.334Z,101339.47
2023-05-07T07:50:54.634Z,101343.22
2023-05-07T07:53:21.335Z,101343.16
2023-05-07T07:55:47.863Z,101350.50
2023-05-07T07:58:14.527Z,101350.31
2023-05-07T08:00:41.189Z,101347.66
2023-05-07T08:03:10.976Z,101347.59
2023-05-07T08:05:39.317Z,101354.69
2023-05-07T08:08:06.811Z,101354.06
2023-05-07T08:10:35.684Z,101350.00
2023-05-07T08:13:04.865Z,101344.00
2023-05-07T08:15:31.979Z,101356.47
2023-05-07T08:18:01.115Z,101351.69
2023-05-07T08:20:27.950Z,101356.63
2023-05-07T08:22:54.521Z,101357.63
2023-05-07T08:25:21.020Z,101360.63
2023-05-07T08:27:47.486Z,101360.44
2023-05-07T08:30:14.570Z,101359.56
2023-05-07T08:32:41.044Z,101363.75
2023-05-07T08:35:07.957Z,101361.66
2023-05-07T08:37:34.433Z,101365.56
2023-05-07T08:40:01.207Z,101357.41
2023-05-07T08:42:30.370Z,101355.28
2023-05-07T08:45:00.228Z,101356.41
2023-05-07T08:47:35.016Z,101361.38
2023-05-07T08:50:02.998Z,101362.53
2023-05-07T08:52:29.558Z,101362.06
2023-05-07T08:54:56.095Z,101350.50
2023-05-07T08:57:24.442Z,101358.03
2023-05-07T08:59:51.043Z,101360.84
2023-05-07T09:02:19.128Z,101359.59
2023-05-07T09:04:45.804Z,101357.47
2023-05-07T09:07:12.348Z,101364.78
2023-05-07T09:09:38.812Z,101361.00
2023-05-07T09:12:05.519Z,101353.16
2023-05-07T09:14:32.044Z,101358.56
2023-05-07T09:16:58.583Z,101351.59
2023-05-07T09:19:26.100Z,101353.97
2023-05-07T09:22:03.581Z,101356.78
2023-05-07T09:24:35.131Z,101354.91
2023-05-07T09:27:03.256Z,101353.63
2023-05-07T09:29:31.148Z,101354.44
2023-05-07T09:31:57.683Z,101352.19
2023-05-07T09:34:24.229Z,101352.34
2023-05-07T09:36:50.746Z,101350.50
2023-05-07T09:39:17.473Z,101361.34
2023-05-07T09:41:45.566Z,101355.84
2023-05-07T09:44:12.207Z,101354.50
2023-05-07T09:46:42.750Z,101349.41
2023-05-07T09:49:15.116Z,101350.84
2023-05-07T09:51:48.541Z,101351.34
2023-05-07T09:54:15.862Z,101348.13
2023-05-07T09:56:44.344Z,101347.38
2023-05-07T09:59:16.788Z,101353.84
2023-05-07T10:01:45.363Z,101345.09
2023-05-07T10:04:13.176Z,101348.66
2023-05-07T10:06:40.044Z,101350.91
2023-05-07T10:09:06.908Z,101352.19
2023-05-07T10:11:36.379Z,101348.25
2023-05-07T10:14:05.064Z,101344.53
2023-05-07T10:16:33.864Z,101350.19
2023-05-07T10:19:00.679Z,101344.53
2023-05-07T10:21:30.748Z,101340.06
2023-05-07T10:24:07.010Z,101341.22
2023-05-07T10:26:35.208Z,101333.59
2023-05-07T10:29:50.767Z,101336.28
2023-05-07T10:32:17.154Z,101335.66
2023-05-07T10:34:46.638Z,101336.34
2023-05-07T10:37:13.940Z,101341.53
2023-05-07T10:39:41.596Z,101346.06
2023-05-07T10:42:09.693Z,101338.22
2023-05-07T10:44:38.399Z,101328.19
2023-05-07T10:47:12.730Z,101332.56
2023-05-07T10:49:42.382Z,101340.13
2023-05-07T10:52:25.537Z,101336.16
2023-05-07T10:55:20.888Z,101334.75
2023-05-07T10:57:47.428Z,101330.91
2023-05-07T11:00:18.418Z,101336.81
2023-05-07T11:03:01.285Z,101334.06
2023-05-07T11:05:36.639Z,101327.75
2023-05-07T11:08:05.726Z,101313.31
2023-05-07T11:10:51.003Z,101321.06
2023-05-07T11:13:18.611Z,101317.63
2023-05-07T11:15:49.403Z,101323.84
2023-05-07T11:18:17.592Z,101319.88
2023-05-07T11:20:51.566Z,101320.47
2023-05-07T11:23:33.093Z,101320.19
2023-05-07T11:26:07.581Z,101318.66
2023-05-07T11:28:42.614Z,101317.66
2023-05-07T11:31:09.460Z,101313.41
2023-05-07T11:33:36.900Z,101319.75
2023-05-07T11:36:05.296Z,101314.75
2023-05-07T11:38:35.610Z,101318.06
2023-05-07T11:41:02.720Z,101314.25
2023-05-07T11:43:29.474Z,101315.19
2023-05-07T11:46:05.514Z,101311.38
2023-05-07T11:48:32.990Z,101308.94
2023-05-07T11:50:59.510Z,101313.28
2023-05-07T11:53:27.214Z,101313.75
2023-05-07T11:55:54.549Z,101311.19
2023-05-07T11:58:29.360Z,101316.09
2023-05-07T12:00:55.909Z,101312.84
2023-05-07T12:03:22.518Z,101312.13
2023-05-07T12:05:49.541Z,101315.63
2023-05-07T12:08:20.050Z,101321.81
2023-05-07T12:10:51.079Z,101325.84
2023-05-07T12:13:27.272Z,101324.91
2023-05-07T12:15:55.051Z,101324.66
2023-05-07T12:18:23.153Z,101317.47
2023-05-07T12:20:51.313Z,101328.75
2023-05-07T12:23:18.682Z,101317.31
2023-05-07T12:25:48.087Z,101327.53
2023-05-07T12:28:18.954Z,101322.03
2023-05-07T12:30:49.249Z,101317.97
2023-05-07T12:33:22.377Z,101317.66
2023-05-07T12:35:49.068Z,101321.03
2023-05-07T12:38:18.342Z,101322.31
2023-05-07T12:40:54.783Z,101316.34
2023-05-07T12:43:25.323Z,101320.94
2023-05-07T12:45:54.414Z,101322.38
2023-05-07T12:48:21.979Z,101319.38
2023-05-07T12:50:52.476Z,101320.00
2023-05-07T12:53:21.939Z,101315.28
2023-05-07T12:55:50.961Z,101322.41
2023-05-07T12:58:19.392Z,101321.25
2023-05-07T13:00:48.266Z,101330.72
2023-05-07T13:03:32.333Z,101332.13
2023-05-07T13:06:01.565Z,101335.38
2023-05-07T13:08:41.117Z,101331.47
2023-05-07T13:11:08.732Z,101326.53
2023-05-07T13:13:37.031Z,101333.31
2023-05-07T13:16:04.866Z,101336.38
2023-05-07T13:18:32.810Z,101337.16
2023-05-07T13:21:00.147Z,101325.53
2023-05-07T13:23:27.056Z,101326.38
2023-05-07T13:25:54.956Z,101324.75
2023-05-07T13:28:21.413Z,101336.31
2023-05-07T13:30:48.042Z,101336.53
2023-05-07T13:33:14.766Z,101338.47
2023-05-07T13:35:41.227Z,101339.25
2023-05-07T13:38:07.774Z,101336.78
2023-05-07T13:40:34.338Z,101344.53
2023-05-07T13:43:03.162Z,101329.88
2023-05-07T13:45:30.838Z,101342.13
2023-05-07T13:47:58.058Z,101343.22
2023-05-07T13:50:25.562Z,101347.47
2023-05-07T13:52:52.114Z,101345.59
2023-05-07T13:55:19.560Z,101342.78
2023-05-07T13:57:46.370Z,101349.22
2023-05-07T14:00:14.459Z,101350.78
2023-05-07T14:02:41.792Z,101343.88
2023-05-07T14:05:08.857Z,101347.31
2023-05-07T14:07:35.567Z,101348.09
2023-05-07T14:10:02.050Z,101349.50
2023-05-07T14:12:28.493Z,101350.56
2023-05-07T14:14:54.995Z,101360.31
2023-05-07T14:17:21.628Z,101349.31
2023-05-07T14:19:48.184Z,101346.63
2023-05-07T14:22:16.342Z,101357.16
2023-05-07T14:24:42.824Z,101356.66
2023-05-07T14:27:09.301Z,101355.69
2023-05-07T14:29:36.988Z,101350.69
2023-05-07T14:32:04.184Z,101356.16
2023-05-07T14:34:32.490Z,101365.53
2023-05-07T14:37:00.585Z,101357.09
2023-05-07T14:39:27.280Z,101359.69
2023-05-07T14:41:55.613Z,101366.13
2023-05-07T14:44:22.244Z,101356.88
2023-05-07T14:46:49.383Z,101365.03
2023-05-07T14:49:18.159Z,101362.34
2023-05-07T14:51:46.427Z,101365.03
2023-05-07T14:54:14.059Z,101361.13
2023-05-07T14:56:41.340Z,101365.97
2023-05-07T14:59:08.510Z,101366.75
2023-05-07T15:01:38.410Z,101368.00
2023-05-07T15:04:05.898Z,101356.59
2023-05-07T15:06:33.339Z,101367.06
2023-05-07T15:08:59.822Z,101361.44
2023-05-07T15:11:26.474Z,101370.50
2023-05-07T15:13:53.021Z,101369.59
2023-05-07T15:16:19.666Z,101365.78
2023-05-07T15:18:46.177Z,101377.06
2023-05-07T15:21:13.212Z,101383.19
2023-05-07T15:23:39.697Z,101386.78
2023-05-07T15:26:06.472Z,101380.50
2023-05-07T15:28:33.729Z,101385.03
2023-05-07T15:31:00.302Z,101378.91
2023-05-07T15:33:26.804Z,101382.53
2023-05-07T15:35:53.298Z,101380.94
2023-05-07T15:38:19.791Z,101377.19
2023-05-07T15:40:46.261Z,101376.28
2023-05-07T15:43:12.815Z,101378.63
2023-05-07T15:45:41.409Z,101383.50
2023-05-07T15:48:09.093Z,101380.53
2023-05-07T15:50:36.269Z,101375.53
2023-05-07T15:53:04.089Z,101383.53
2023-05-07T15:55:32.057Z,101374.94
2023-05-07T15:57:58.942Z,101382.00
2023-05-07T16:00:28.605Z,101381.22
2023-05-07T16:02:55.489Z,101375.41
2023-05-07T16:05:22.280Z,101379.34
2023-05-07T16:07:48.953Z,101375.41
2023-05-07T16:10:15.678Z,101374.47
2023-05-07T16:12:42.345Z,101368.06
2023-05-07T16:15:09.190Z,101373.44
2023-05-07T16:17:35.786Z,101370.91
2023-05-07T16:20:06.318Z,101362.44
2023-05-07T16:22:33.124Z,101378.56
2023-05-07T16:24:59.817Z,101369.94
2023-05-07T16:27:26.349Z,101369.00
2023-05-07T16:29:52.813Z,101364.91
2023-05-07T16:32:19.667Z,101365.72
2023-05-07T16:34:46.967Z,101364.31
2023-05-07T16:37:14.347Z,101366.34
2023-05-07T16:39:40.895Z,101371.06
2023-05-07T16:42:07.393Z,101380.91
2023-05-07T16:44:33.932Z,101367.28
2023-05-07T16:47:00.735Z,101374.66
2023-05-07T16:49:27.167Z,101368.66
2023-05-07T16:51:53.844Z,101376.38
2023-05-07T16:54:20.350Z,101372.41
2023-05-07T16:56:47.624Z,101372.13
2023-05-07T16:59:14.167Z,101366.78
2023-05-07T17:01:42.673Z,101365.34
2023-05-07T17:04:09.388Z,101373.50
2023-05-07T17:06:36.404Z,101376.47
2023-05-07T17:09:03.395Z,101380.19
2023-05-07T17:11:31.612Z,101371.56
2023-05-07T17:13:58.124Z,101380.19
2023-05-07T17:16:24.720Z,101372.91
2023-05-07T17:18:51.473Z,101384.44
2023-05-07T17:21:17.920Z,101387.59
2023-05-07T17:23:44.374Z,101390.22
2023-05-07T17:26:14.503Z,101399.94
2023-05-07T17:28:41.100Z,101396.78
2023-05-07T17:31:07.753Z,101401.00
2023-05-07T17:33:34.650Z,101408.47
2023-05-07T17:36:03.093Z,101410.31
2023-05-07T17:38:30.676Z,101411.84
2023-05-07T17:40:58.670Z,101414.31
2023-05-07T17:43:25.280Z,101423.09
2023-05-07T17:45:51.869Z,101428.09
2023-05-07T17:48:18.682Z,101427.09
2023-05-07T17:50:45.514Z,101432.38
2023-05-07T17:53:12.295Z,101441.44
2023-05-07T17:55:45.243Z,101438.44
2023-05-07T17:58:12.378Z,101434.81
2023-05-07T18:00:39.015Z,101434.16
2023-05-07T18:03:05.903Z,101441.03
2023-05-07T18:05:35.985Z,101446.78
2023-05-07T18:08:02.467Z,101438.13
2023-05-07T18:10:29.079Z,101447.94
2023-05-07T18:12:55.699Z,101454.00
2023-05-07T18:15:22.209Z,101463.06
2023-05-07T18:17:48.934Z,101456.72
2023-05-07T18:20:15.610Z,101470.50
2023-05-07T18:22:42.076Z,101463.41
2023-05-07T18:25:08.730Z,101469.59
2023-05-07T18:27:35.487Z,101464.19
2023-05-07T18:30:02.425Z,101475.69
2023-05-07T18:32:28.942Z,101481.09
2023-05-07T18:34:55.471Z,101470.09
2023-05-07T18:37:23.994Z,101486.97
2023-05-07T18:39:51.199Z,101489.56
2023-05-07T18:42:17.725Z,101486.84
2023-05-07T18:44:44.605Z,101492.47
2023-05-07T18:47:11.226Z,101491.50
2023-05-07T18:49:37.830Z,101486.75
2023-05-07T18:52:04.563Z,101491.78
2023-05-07T18:54:31.089Z,101495.25
2023-05-07T18:56:57.609Z,101496.50
2023-05-07T18:59:24.157Z,101498.28
2023-05-07T19:01:50.742Z,101502.88
2023-05-07T19:04:18.093Z,101507.41
2023-05-07T19:06:44.753Z,101504.72
2023-05-07T19:09:11.864Z,101516.13
2023-05-07T19:11:38.359Z,101517.81
2023-05-07T19:14:05.392Z,101521.06
2023-05-07T19:16:32.124Z,101514.78
2023-05-07T19:18:58.744Z,101514.41
2023-05-07T19:21:25.484Z,101515.34
2023-05-07T19:23:53.743Z,101515.06
2023-05-07T19:26:21.230Z,101523.63
2023-05-07T19:28:52.015Z,101529.75
2023-05-07T19:31:28.244Z,101526.28
2023-05-07T19:33:54.837Z,101521.28
2023-05-07T19:36:21.318Z,101525.78
2023-05-07T19:38:49.888Z,101518.41
2023-05-07T19:41:16.405Z,101527.19
2023-05-07T19:43:42.900Z,101535.25
2023-05-07T19:46:09.419Z,101549.06
2023-05-07T19:48:35.926Z,101541.94
2023-05-07T19:51:03.027Z,101544.75
2023-05-07T19:53:30.325Z,101550.47
2023-05-07T19:56:03.222Z,101545.81
2023-05-07T19:58:30.043Z,101540.66
2023-05-07T20:00:56.472Z,101546.81
2023-05-07T20:03:23.051Z,101548.91
2023-05-07T20:05:50.475Z,101551.81
2023-05-07T20:08:16.962Z,101554.72
2023-05-07T20:10:43.408Z,101551.72
2023-05-07T20:13:11.299Z,101559.34
2023-05-07T20:15:39.448Z,101561.47
2023-05-07T20:18:06.029Z,101556.72
2023-05-07T20:20:32.688Z,101558.75
2023-05-07T20:22:59.261Z,101569.34
2023-05-07T20:25:25.800Z,101569.00
2023-05-07T20:27:52.299Z,101570.66
2023-05-07T20:30:23.602Z,101576.00
2023-05-07T20:32:50.782Z,101574.88
2023-05-07T20:35:17.318Z,101576.13
2023-05-07T20:37:43.841Z,101581.03
2023-05-07T20:40:10.860Z,101583.91
2023-05-07T20:42:37.597Z,101591.19
2023-05-07T20:45:04.458Z,101586.50
2023-05-07T20:47:32.980Z,101588.72
2023-05-07T20:49:59.532Z,101595.53
2023-05-07T20:52:25.981Z,101592.81
2023-05-07T20:54:52.562Z,101597.28
2023-05-07T20:57:19.794Z,101593.66
2023-05-07T20:59:46.375Z,101596.19
2023-05-07T21:02:13.065Z,101595.81
2023-05-07T21:04:39.653Z,101601.59
2023-05-07T21:07:07.519Z,101601.44
2023-05-07T21:09:34.008Z,101609.06
2023-05-07T21:12:00.542Z,101611.44
2023-05-07T21:14:27.037Z,101619.84
2023-05-07T21:16:53.523Z,101619.06
2023-05-07T21:19:20.172Z,101621.50
2023-05-07T21:21:46.698Z,101626.75
2023-05-07T21:24:13.193Z,101629.63
2023-05-07T21:26:39.695Z,101625.38
2023-05-07T21:29:06.171Z,101621.78
2023-05-07T21:31:32.858Z,101626.16
2023-05-07T21:33:59.356Z,101621.50
2023-05-07T21:36:25.829Z,101627.09
2023-05-07T21:38:52.332Z,101627.09
2023-05-07T21:41:20.410Z,101623.16
2023-05-07T21:43:46.879Z,101620.03
2023-05-07T21:46:13.493Z,101621.22
2023-05-07T21:48:40.096Z,101613.66
2023-05-07T21:51:07.893Z,101616.47
2023-05-07T21:53:35.213Z,101609.34
2023-05-07T21:56:02.920Z,101621.34
2023-05-07T21:58:30.858Z,101618.63
2023-05-07T22:00:58.201Z,101618.63
2023-05-07T22:03:24.790Z,101610.69
2023-05-07T22:05:51.528Z,101614.34
2023-05-07T22:08:18.359Z,101614.06
2023-05-07T22:10:44.877Z,101611.69
2023-05-07T22:13:11.504Z,101620.47
2023-05-07T22:15:49.050Z,101615.72
2023-05-07T22:18:23.000Z,101624.97
2023-05-07T22:20:51.734Z,101621.44
2023-05-07T22:23:18.246Z,101622.72
2023-05-07T22:25:44.698Z,101626.31
2023-05-07T22:28:11.214Z,101625.56
2023-05-07T22:30:37.872Z,101614.59
2023-05-07T22:33:04.382Z,101624.94
2023-05-07T22:35:31.159Z,101629.81
2023-05-07T22:37:58.393Z,101622.66
2023-05-07T22:40:24.887Z,101616.66
2023-05-07T22:42:51.424Z,101636.25
2023-05-07T22:45:17.924Z,101632.72
2023-05-07T22:47:44.472Z,101629.66
2023-05-07T22:50:12.658Z,101639.28
2023-05-07T22:52:39.391Z,101640.13
2023-05-07T22:55:06.717Z,101635.75
2023-05-07T22:57:33.208Z,101631.81
2023-05-07T22:59:59.704Z,101635.03
2023-05-07T23:02:29.029Z,101634.63
2023-05-07T23:04:58.744Z,101631.09
2023-05-07T23:07:25.206Z,101634.75
2023-05-07T23:09:51.766Z,101633.16
2023-05-07T23:12:18.417Z,101636.78
2023-05-07T23:14:44.933Z,101643.59
2023-05-07T23:17:11.428Z,101639.63
2023-05-07T23:19:38.168Z,101636.88
2023-05-07T23:22:04.792Z,101640.88
2023-05-07T23:24:31.245Z,101638.53
2023-05-07T23:26:57.792Z,101641.34
2023-05-07T23:29:24.237Z,101639.38
2023-05-07T23:31:50.968Z,101636.91
2023-05-07T23:34:23.639Z,101640.13
2023-05-07T23:36:51.109Z,101637.34
2023-05-07T23:39:18.649Z,101635.44
2023-05-07T23:41:45.288Z,101636.19
2023-05-07T23:44:11.860Z,101637.44
2023-05-07T23:46:38.465Z,101631.50
2023-05-07T23:49:05.059Z,101631.09
2023-05-07T23:51:31.503Z,101641.91
2023-05-07T23:53:58.084Z,101635.97
2023-05-07T23:56:24.547Z,101644.34
2023-05-07T23:58:51.088Z,101640.41
